Time;durP1;ratioP1;P1;durP2;ratioP2;P2;SDS_P1;SDS_P2;PMS_P1;PMS_P2;Temp;Humidity;BMP_temperature;BMP_pressure;BME280_temperature;BME280_humidity;BME280_pressure;Samples;Min_cycle;Max_cycle;Signal;HPM_P1;HPM_P2
2022/06/07 00:01:05;;;;;;;3.25;1.23;;;17.50;99.90;;;;;;4989643;28;20061;-84
2022/06/07 00:03:30;;;;;;;1.40;1.10;;;17.50;99.90;;;;;;4990723;28;20023;-84
2022/06/07 00:05:56;;;;;;;1.48;1.20;;;17.40;99.90;;;;;;4989274;28;20049;-85
2022/06/07 00:08:23;;;;;;;2.40;1.08;;;17.40;99.90;;;;;;4989037;28;20038;-85
2022/06/07 00:10:49;;;;;;;2.13;1.10;;;17.40;99.90;;;;;;4989640;28;20093;-85
2022/06/07 00:13:17;;;;;;;2.50;1.00;;;17.40;99.90;;;;;;4991085;28;20027;-85
2022/06/07 00:15:43;;;;;;;5.75;1.35;;;17.40;99.90;;;;;;4989227;28;20060;-84
2022/06/07 00:18:10;;;;;;;1.85;1.02;;;17.40;99.90;;;;;;4990707;28;20027;-84
2022/06/07 00:20:38;;;;;;;4.10;1.65;;;17.40;99.90;;;;;;4991033;28;20034;-84
2022/06/07 00:23:08;;;;;;;3.67;1.00;;;17.40;99.90;;;;;;4989260;28;20053;-84
2022/06/07 00:25:33;;;;;;;3.33;1.20;;;17.40;99.90;;;;;;4989009;28;20372;-84
2022/06/07 00:27:59;;;;;;;1.95;1.13;;;17.40;99.90;;;;;;4990412;28;20030;-83
2022/06/07 00:30:26;;;;;;;1.65;1.05;;;17.30;99.90;;;;;;4988569;28;20037;-84
2022/06/07 00:32:52;;;;;;;2.30;1.25;;;17.30;99.90;;;;;;4989909;28;20461;-85
2022/06/07 00:35:17;;;;;;;2.35;1.10;;;17.30;99.90;;;;;;4988450;28;20137;-84
2022/06/07 00:37:43;;;;;;;2.20;1.25;;;17.20;99.90;;;;;;4989032;28;20418;-85
2022/06/07 00:40:10;;;;;;;2.22;1.33;;;17.20;99.90;;;;;;4988453;28;20038;-85
2022/06/07 00:42:36;;;;;;;4.05;1.38;;;17.20;99.90;;;;;;4988438;28;20038;-86
2022/06/07 00:45:02;;;;;;;3.85;1.20;;;17.10;99.90;;;;;;4988120;28;20033;-85
2022/06/07 00:47:30;;;;;;;3.90;1.17;;;17.20;99.90;;;;;;4988788;28;20027;-85
2022/06/07 00:50:08;;;;;;;2.70;1.17;;;17.10;99.90;;;;;;4988698;28;20108;-84
2022/06/07 00:52:35;;;;;;;3.13;1.42;;;17.10;99.90;;;;;;4988590;28;20105;-85
2022/06/07 00:55:05;;;;;;;3.78;1.35;;;17.00;99.90;;;;;;4986309;28;20053;-85
2022/06/07 00:57:31;;;;;;;7.18;2.63;;;17.10;99.90;;;;;;4988957;28;20018;-85
2022/06/07 00:59:57;;;;;;;3.22;1.30;;;17.00;99.90;;;;;;4988525;28;20374;-86
2022/06/07 01:02:23;;;;;;;6.50;1.25;;;17.00;99.90;;;;;;4989201;28;20034;-85
2022/06/07 01:04:49;;;;;;;4.05;1.25;;;16.90;99.90;;;;;;4988229;28;20029;-84
2022/06/07 01:12:43;;;;;;;4.55;1.50;;;16.80;99.90;;;;;;4986758;28;20041;-85
2022/06/07 01:15:10;;;;;;;1.65;1.17;;;16.80;99.90;;;;;;5004338;28;20037;-84
2022/06/07 01:17:35;;;;;;;2.00;1.50;;;16.80;99.90;;;;;;4988354;28;20069;-83
2022/06/07 01:20:02;;;;;;;1.90;1.33;;;16.80;99.90;;;;;;4988088;28;20539;-83
2022/06/07 01:22:28;;;;;;;5.13;1.60;;;16.70;99.90;;;;;;4987896;28;20702;-84
2022/06/07 01:24:54;;;;;;;1.60;1.20;;;16.70;99.90;;;;;;4988237;28;20042;-84
2022/06/07 01:27:20;;;;;;;2.28;1.13;;;16.70;99.90;;;;;;4987821;28;20062;-85
2022/06/07 01:29:46;;;;;;;2.25;1.10;;;16.70;99.90;;;;;;4988235;28;20120;-85
2022/06/07 01:32:12;;;;;;;1.50;1.00;;;16.70;99.90;;;;;;4987047;28;20050;-83
2022/06/07 01:34:43;;;;;;;2.17;1.33;;;16.70;99.90;;;;;;4989209;28;20790;-85
2022/06/07 01:37:11;;;;;;;5.57;1.50;;;16.70;99.90;;;;;;4988659;28;20109;-85
2022/06/07 01:42:38;;;;;;;3.15;1.85;;;16.70;99.90;;;;;;4948027;29;20028;-84
2022/06/07 01:45:05;;;;;;;3.60;1.60;;;16.70;99.90;;;;;;4962465;28;20038;-85
2022/06/07 01:47:32;;;;;;;2.17;1.48;;;16.70;99.90;;;;;;4987805;28;20149;-85
2022/06/07 01:49:58;;;;;;;2.47;1.73;;;16.70;99.90;;;;;;4987693;28;20048;-84
2022/06/07 01:52:26;;;;;;;9.50;2.70;;;16.60;99.90;;;;;;4987092;28;20031;-84
2022/06/07 01:54:52;;;;;;;2.72;1.20;;;16.60;99.90;;;;;;4988046;28;20079;-84
2022/06/07 01:57:19;;;;;;;2.47;1.70;;;16.60;99.90;;;;;;4988207;28;20026;-84
2022/06/07 01:59:45;;;;;;;2.88;1.77;;;16.60;99.90;;;;;;4989144;28;20041;-84
2022/06/07 02:02:11;;;;;;;11.18;2.75;;;16.50;99.90;;;;;;4993055;28;20030;-84
2022/06/07 02:04:38;;;;;;;3.72;1.60;;;16.50;99.90;;;;;;4992255;28;20026;-83
2022/06/07 02:07:06;;;;;;;3.08;1.70;;;16.50;99.90;;;;;;4992547;28;20026;-85
2022/06/07 02:09:32;;;;;;;2.08;1.33;;;16.50;99.90;;;;;;4993133;28;20034;-85
2022/06/07 02:11:59;;;;;;;4.57;1.33;;;16.40;99.90;;;;;;4991784;28;20030;-84
2022/06/07 02:14:25;;;;;;;2.45;1.17;;;16.40;99.90;;;;;;4991584;28;20026;-84
2022/06/07 02:16:50;;;;;;;3.35;1.60;;;16.40;99.90;;;;;;4991374;28;20030;-85
2022/06/07 02:19:16;;;;;;;2.03;1.05;;;16.40;99.90;;;;;;4989929;28;20034;-84
2022/06/07 02:21:42;;;;;;;1.70;1.10;;;16.40;99.90;;;;;;4990988;28;20022;-83
2022/06/07 02:24:09;;;;;;;1.40;1.20;;;16.40;99.90;;;;;;4990384;28;20648;-84
2022/06/07 02:26:56;;;;;;;2.55;1.40;;;16.40;99.90;;;;;;4991391;28;20569;-84
2022/06/07 02:29:27;;;;;;;1.73;1.38;;;16.40;99.90;;;;;;4991140;28;20049;-85
2022/06/07 02:31:58;;;;;;;2.45;1.40;;;16.40;99.90;;;;;;4991709;28;20479;-84
2022/06/07 02:34:25;;;;;;;3.90;1.15;;;16.30;99.90;;;;;;4991392;28;20053;-85
2022/06/07 02:36:53;;;;;;;1.92;1.10;;;16.40;99.90;;;;;;4991239;28;20030;-85
2022/06/07 02:39:19;;;;;;;3.95;1.00;;;16.30;99.90;;;;;;4973952;28;20585;-85
2022/06/07 02:41:47;;;;;;;1.70;1.20;;;16.30;99.90;;;;;;4990458;28;20117;-84
2022/06/07 02:44:13;;;;;;;1.90;1.30;;;16.30;99.90;;;;;;4991646;28;20076;-84
2022/06/07 02:46:38;;;;;;;;;;;16.20;99.90;;;;;;4974606;28;20607;-85
2022/06/07 02:49:04;;;;;;;3.95;1.45;;;16.20;99.90;;;;;;4975067;28;20021;-85
2022/06/07 02:51:30;;;;;;;3.88;1.48;;;16.20;99.90;;;;;;4987922;28;20061;-85
2022/06/07 02:53:56;;;;;;;;;;;16.20;99.90;;;;;;4987850;28;20027;-86
2022/06/07 02:56:22;;;;;;;2.43;1.70;;;16.20;99.90;;;;;;4970282;28;19964;-86
2022/06/07 02:58:48;;;;;;;6.10;1.40;;;16.30;99.90;;;;;;4972571;28;20640;-84
2022/06/07 03:01:14;;;;;;;2.53;1.30;;;16.30;99.90;;;;;;4989970;28;20034;-85
2022/06/07 03:03:40;;;;;;;;;;;16.30;99.90;;;;;;4973668;28;20026;-86
2022/06/07 03:06:06;;;;;;;3.17;1.33;;;16.30;99.90;;;;;;4972312;28;20260;-85
2022/06/07 03:08:32;;;;;;;2.97;2.05;;;16.30;99.90;;;;;;4973383;28;20571;-85
2022/06/07 03:10:57;;;;;;;;;;;16.30;99.90;;;;;;4990967;28;20080;-85
2022/06/07 03:13:23;;;;;;;4.70;1.23;;;16.40;99.90;;;;;;4991419;28;20354;-86
2022/06/07 03:15:49;;;;;;;1.75;1.15;;;16.30;99.90;;;;;;4990574;28;20038;-85
2022/06/07 03:18:15;;;;;;;;;;;16.30;99.90;;;;;;4990529;28;20054;-85
2022/06/07 03:20:41;;;;;;;2.90;1.40;;;16.40;99.90;;;;;;4977646;28;19917;-85
2022/06/07 03:23:07;;;;;;;2.03;1.35;;;16.40;99.90;;;;;;4973182;28;20018;-84
2022/06/07 03:25:33;;;;;;;2.28;1.20;;;16.50;99.90;;;;;;4973190;28;20422;-85
2022/06/07 03:28:03;;;;;;;2.80;1.10;;;16.50;99.90;;;;;;4989336;28;20066;-84
2022/06/07 03:30:29;;;;;;;2.30;1.23;;;16.50;99.90;;;;;;4972825;28;20034;-86
2022/06/07 03:32:56;;;;;;;5.05;1.48;;;16.60;99.90;;;;;;4972641;28;20022;-84
2022/06/07 03:35:22;;;;;;;2.13;1.30;;;16.60;99.90;;;;;;4972406;28;20588;-85
2022/06/07 03:37:48;;;;;;;5.72;1.63;;;16.70;99.90;;;;;;4972899;28;20410;-86
2022/06/07 03:40:42;;;;;;;5.35;2.08;;;16.70;99.90;;;;;;4989835;28;20057;-86
2022/06/07 03:43:00;;;;;;;2.35;1.40;;;16.80;99.90;;;;;;4990001;28;20141;-86
2022/06/07 03:45:26;;;;;;;1.98;1.33;;;16.80;99.90;;;;;;4972922;28;20128;-85
2022/06/07 03:47:51;;;;;;;;;;;16.90;99.90;;;;;;4972648;28;21014;-85
2022/06/07 03:50:17;;;;;;;2.15;1.48;;;17.00;99.90;;;;;;4972324;28;20714;-87
2022/06/07 03:52:43;;;;;;;4.30;1.52;;;17.10;99.90;;;;;;4972013;28;20091;-85
2022/06/07 03:55:08;;;;;;;2.67;1.10;;;17.20;99.90;;;;;;4972563;28;20510;-85
2022/06/07 03:57:34;;;;;;;2.60;1.23;;;17.40;99.90;;;;;;4972924;28;20025;-86
2022/06/07 04:00:00;;;;;;;1.40;0.80;;;17.50;99.90;;;;;;4972937;28;20069;-86
2022/06/07 04:02:26;;;;;;;2.35;1.30;;;17.80;99.90;;;;;;4971796;28;20521;-84
2022/06/07 04:04:51;;;;;;;3.00;1.40;;;18.10;99.90;;;;;;4971924;28;20037;-86
2022/06/07 04:10:02;;;;;;;3.35;1.60;;;18.80;99.90;;;;;;4989533;28;20061;-85
2022/06/07 04:12:27;;;;;;;4.50;1.15;;;19.10;99.90;;;;;;4989464;28;20117;-84
2022/06/07 04:14:53;;;;;;;2.78;1.10;;;19.20;99.90;;;;;;4989939;28;20121;-85
2022/06/07 04:17:19;;;;;;;1.75;1.10;;;19.40;99.90;;;;;;4971388;28;20050;-85
2022/06/07 04:19:44;;;;;;;4.00;1.40;;;19.50;99.90;;;;;;4988773;28;20061;-85
2022/06/07 04:22:11;;;;;;;4.95;1.45;;;19.60;99.90;;;;;;4969834;28;20077;-85
2022/06/07 04:24:37;;;;;;;2.40;1.70;;;19.70;99.90;;;;;;4971246;28;20018;-86
2022/06/07 04:27:03;;;;;;;4.70;1.25;;;19.80;99.90;;;;;;4989229;28;20272;-86
2022/06/07 04:29:29;;;;;;;4.82;1.13;;;20.00;99.90;;;;;;4968761;28;20069;-85
2022/06/07 04:31:54;;;;;;;1.88;1.00;;;20.10;99.90;;;;;;4987459;28;20030;-85
2022/06/07 04:34:20;;;;;;;2.88;1.50;;;20.20;99.90;;;;;;4971480;28;20026;-85
2022/06/07 04:36:46;;;;;;;2.95;1.50;;;20.40;99.90;;;;;;4971502;28;20046;-84
2022/06/07 04:39:12;;;;;;;2.58;1.30;;;20.50;99.90;;;;;;4977723;28;20030;-86
2022/06/07 04:41:38;;;;;;;1.83;0.93;;;20.60;99.90;;;;;;4974236;28;20058;-86
2022/06/07 04:44:04;;;;;;;4.97;1.08;;;20.70;99.90;;;;;;4988225;28;20060;-86
2022/06/07 04:46:30;;;;;;;4.60;1.15;;;20.80;99.90;;;;;;4988887;28;20117;-85
2022/06/07 04:48:56;;;;;;;3.15;1.27;;;20.90;99.90;;;;;;4979485;28;20041;-86
2022/06/07 04:51:33;;;;;;;3.53;1.40;;;21.10;99.90;;;;;;4991728;28;20103;-85
2022/06/07 04:54:00;;;;;;;2.75;1.27;;;21.20;99.90;;;;;;4994595;28;20060;-86
2022/06/07 04:56:36;;;;;;;3.22;1.08;;;21.40;99.90;;;;;;4988038;28;20025;-85
2022/06/07 04:59:05;;;;;;;2.03;1.25;;;21.60;99.90;;;;;;4999517;28;20038;-86
2022/06/07 05:01:39;;;;;;;2.03;1.10;;;21.80;99.90;;;;;;4972202;28;20045;-86
2022/06/07 05:04:06;;;;;;;2.30;1.00;;;21.90;99.90;;;;;;4987697;28;20522;-84
2022/06/07 05:06:35;;;;;;;3.70;1.33;;;22.00;99.90;;;;;;4998155;28;20030;-85
2022/06/07 05:09:06;;;;;;;2.25;1.23;;;22.20;99.90;;;;;;4997590;28;20049;-86
2022/06/07 05:11:32;;;;;;;2.28;1.20;;;22.30;99.90;;;;;;4989985;28;20482;-85
2022/06/07 05:13:59;;;;;;;2.25;1.27;;;22.40;99.90;;;;;;4988406;28;20056;-85
2022/06/07 05:16:26;;;;;;;3.05;1.65;;;22.70;99.90;;;;;;4988656;28;20030;-85
2022/06/07 05:18:54;;;;;;;4.60;1.35;;;22.90;99.90;;;;;;4988530;28;20026;-85
2022/06/07 05:21:21;;;;;;;4.65;1.23;;;23.10;99.90;;;;;;4987956;28;20035;-86
2022/06/07 05:23:47;;;;;;;1.85;1.02;;;23.20;97.70;;;;;;4998842;28;20025;-88
2022/06/07 05:26:17;;;;;;;2.67;1.52;;;23.30;94.30;;;;;;4993522;28;20029;-83
2022/06/07 05:28:43;;;;;;;4.88;1.42;;;23.40;92.20;;;;;;4979753;28;20030;-87
2022/06/07 05:31:10;;;;;;;2.75;1.45;;;23.40;91.30;;;;;;5012282;28;20014;-88
2022/06/07 05:33:36;;;;;;;4.22;1.30;;;23.50;90.70;;;;;;4999456;28;20031;-85
2022/06/07 05:36:04;;;;;;;1.95;1.42;;;23.60;90.60;;;;;;4993073;28;20053;-85
2022/06/07 05:38:30;;;;;;;12.02;1.75;;;23.80;90.30;;;;;;5010798;28;20106;-87
2022/06/07 05:40:56;;;;;;;4.05;2.00;;;24.00;89.60;;;;;;4995701;28;20033;-83
2022/06/07 05:43:22;;;;;;;6.43;1.20;;;24.20;90.10;;;;;;4994658;28;20026;-85
2022/06/07 05:45:49;;;;;;;6.18;1.65;;;24.40;86.00;;;;;;4991300;28;20030;-81
2022/06/07 05:48:15;;;;;;;3.88;1.77;;;24.80;82.90;;;;;;5000961;28;20030;-80
2022/06/07 05:50:43;;;;;;;7.28;1.77;;;25.30;81.00;;;;;;4998292;28;20083;-80
2022/06/07 05:53:10;;;;;;;4.05;1.60;;;25.80;79.40;;;;;;4984784;28;20023;-83
2022/06/07 05:55:36;;;;;;;6.88;1.70;;;26.90;76.20;;;;;;4983562;28;20045;-83
2022/06/07 05:58:02;;;;;;;10.18;1.60;;;28.30;70.10;;;;;;4993695;28;20030;-86
2022/06/07 06:00:30;;;;;;;3.55;1.58;;;29.80;62.30;;;;;;4989565;28;20026;-84
2022/06/07 06:02:56;;;;;;;5.57;1.55;;;31.30;55.20;;;;;;4991100;28;20022;-84
2022/06/07 06:05:21;;;;;;;4.53;1.48;;;32.40;49.10;;;;;;4975128;28;20430;-83
2022/06/07 06:10:31;;;;;;;2.25;1.17;;;34.40;42.40;;;;;;4992516;28;20114;-84
2022/06/07 06:12:57;;;;;;;4.85;1.80;;;35.10;38.60;;;;;;4991078;28;20109;-84
2022/06/07 06:15:23;;;;;;;6.07;1.13;;;35.50;37.00;;;;;;4990921;28;20062;-82
2022/06/07 06:17:48;;;;;;;1.90;1.15;;;35.80;36.20;;;;;;4991156;28;20053;-83
2022/06/07 06:20:14;;;;;;;9.60;1.20;;;36.40;34.40;;;;;;4973134;28;20494;-84
2022/06/07 06:22:40;;;;;;;4.38;1.35;;;37.00;31.40;;;;;;4990212;28;20038;-84
2022/06/07 06:25:08;;;;;;;2.50;1.10;;;36.90;31.60;;;;;;4990089;28;20035;-83
2022/06/07 06:27:33;;;;;;;4.07;1.10;;;36.80;31.50;;;;;;4989664;28;20031;-83
2022/06/07 06:29:59;;;;;;;4.82;1.17;;;36.70;30.30;;;;;;4990538;28;20038;-85
2022/06/07 06:32:26;;;;;;;1.90;1.00;;;36.30;30.80;;;;;;4989235;28;20584;-83
2022/06/07 06:34:51;;;;;;;3.28;1.30;;;36.50;30.70;;;;;;4988445;28;20513;-82
2022/06/07 06:37:18;;;;;;;1.25;0.93;;;36.60;30.50;;;;;;4988706;28;20030;-82
2022/06/07 06:39:44;;;;;;;2.53;0.95;;;36.80;30.20;;;;;;4989306;28;20062;-84
2022/06/07 06:42:10;;;;;;;2.60;1.00;;;36.90;29.60;;;;;;4991303;28;20101;-83
2022/06/07 06:44:36;;;;;;;5.22;1.13;;;36.90;30.20;;;;;;4990647;28;20061;-84
2022/06/07 06:47:12;;;;;;;2.22;1.00;;;37.40;29.70;;;;;;4988182;28;20030;-83
2022/06/07 06:49:41;;;;;;;7.88;1.13;;;37.60;28.70;;;;;;4989859;28;20074;-83
2022/06/07 06:52:09;;;;;;;3.55;1.55;;;37.30;28.20;;;;;;4988639;28;20505;-83
2022/06/07 06:54:36;;;;;;;1.33;0.70;;;37.20;28.10;;;;;;4972815;28;20030;-83
2022/06/07 06:57:02;;;;;;;3.45;0.90;;;36.60;28.90;;;;;;4990373;28;20569;-83
2022/06/07 06:59:28;;;;;;;5.07;1.00;;;36.40;29.20;;;;;;4990091;28;20061;-82
2022/06/07 07:01:54;;;;;;;4.05;1.27;;;36.30;28.40;;;;;;4972921;28;20153;-83
2022/06/07 07:04:20;;;;;;;1.92;1.15;;;36.40;29.40;;;;;;4988792;28;20513;-83
2022/06/07 07:06:47;;;;;;;1.45;0.98;;;36.00;28.70;;;;;;4989098;28;20034;-82
2022/06/07 07:09:16;;;;;;;2.25;1.00;;;36.20;29.20;;;;;;4988745;28;20101;-83
2022/06/07 07:11:48;;;;;;;4.03;0.95;;;36.10;29.50;;;;;;4988311;28;20438;-82
2022/06/07 07:14:14;;;;;;;4.50;1.08;;;36.00;29.40;;;;;;4988531;28;20057;-81
2022/06/07 07:16:45;;;;;;;1.90;1.00;;;35.70;29.60;;;;;;4988342;28;20129;-83
2022/06/07 07:19:11;;;;;;;5.25;1.40;;;35.70;30.00;;;;;;4972279;28;20034;-82
2022/06/07 07:21:40;;;;;;;4.00;1.00;;;36.00;29.70;;;;;;4989770;28;20102;-83
2022/06/07 07:24:09;;;;;;;1.58;1.08;;;36.00;29.80;;;;;;4972411;28;20026;-83
2022/06/07 07:26:36;;;;;;;4.63;1.15;;;36.00;28.80;;;;;;4972243;28;20030;-83
2022/06/07 07:29:03;;;;;;;4.32;1.10;;;36.20;29.60;;;;;;4990428;28;20045;-83
2022/06/07 07:31:32;;;;;;;3.03;1.30;;;36.40;29.80;;;;;;4976681;28;20394;-83
2022/06/07 07:33:59;;;;;;;2.13;1.30;;;35.90;30.00;;;;;;4989493;28;20037;-83
2022/06/07 07:36:26;;;;;;;1.60;1.05;;;35.70;31.20;;;;;;4971929;28;20097;-83
2022/06/07 07:38:52;;;;;;;2.08;1.33;;;35.70;30.10;;;;;;4972525;28;20055;-82
2022/06/07 07:41:24;;;;;;;2.05;0.93;;;36.10;31.30;;;;;;4972719;28;20034;-84
2022/06/07 07:43:52;;;;;;;5.43;1.23;;;36.10;30.60;;;;;;4990412;28;20044;-84
2022/06/07 07:46:20;;;;;;;8.93;1.10;;;36.30;30.60;;;;;;4971863;28;20109;-84
2022/06/07 07:48:46;;;;;;;5.72;1.00;;;36.40;30.70;;;;;;4990913;28;20053;-84
2022/06/07 07:51:21;;;;;;;2.75;1.33;;;36.50;29.80;;;;;;4973506;28;20026;-85
2022/06/07 07:53:47;;;;;;;2.95;1.38;;;36.90;29.20;;;;;;4973633;28;20030;-85
2022/06/07 07:56:14;;;;;;;4.63;1.75;;;36.90;29.70;;;;;;4973314;28;20113;-85
2022/06/07 07:58:41;;;;;;;1.75;1.30;;;36.70;30.00;;;;;;4973265;28;20121;-85
2022/06/07 08:01:14;;;;;;;5.57;1.05;;;36.30;31.10;;;;;;4991420;28;20025;-87
2022/06/07 08:03:41;;;;;;;3.05;1.00;;;36.10;30.00;;;;;;4992223;28;20296;-86
2022/06/07 08:06:10;;;;;;;2.35;1.40;;;36.20;31.00;;;;;;4991245;28;20036;-86
2022/06/07 08:08:36;;;;;;;7.32;1.27;;;36.30;29.80;;;;;;4974729;28;20050;-86
2022/06/07 08:11:02;;;;;;;7.13;1.65;;;36.00;29.90;;;;;;4974548;28;20073;-85
2022/06/07 08:13:28;;;;;;;5.88;1.00;;;35.90;29.80;;;;;;4973246;28;20056;-81
2022/06/07 08:15:54;;;;;;;1.95;1.20;;;35.70;30.00;;;;;;4971532;28;20447;-83
2022/06/07 08:18:23;;;;;;;3.90;1.02;;;35.90;30.10;;;;;;4972211;28;20455;-86
2022/06/07 08:20:49;;;;;;;2.75;1.10;;;36.10;30.10;;;;;;4973364;28;20030;-84
2022/06/07 08:23:15;;;;;;;5.93;1.25;;;36.20;29.60;;;;;;4990699;28;20054;-84
2022/06/07 08:25:41;;;;;;;7.40;1.00;;;36.40;29.60;;;;;;4973241;28;20022;-85
2022/06/07 08:28:07;;;;;;;3.15;1.15;;;36.20;29.10;;;;;;4972720;28;20547;-85
2022/06/07 08:30:34;;;;;;;3.80;1.10;;;36.60;28.70;;;;;;4972997;28;20026;-84
2022/06/07 08:37:32;;;;;;;4.05;1.13;;;36.80;29.40;;;;;;4972552;28;20491;-85
2022/06/07 08:38:30;;;;;;;6.38;1.00;;;36.40;28.30;;;;;;5000360;28;20040;-85
2022/06/07 08:40:56;;;;;;;4.43;1.25;;;36.10;29.60;;;;;;4992315;28;20030;-85
2022/06/07 08:43:23;;;;;;;11.18;1.00;;;35.50;30.30;;;;;;4980151;28;20026;-85
2022/06/07 08:45:50;;;;;;;2.75;1.25;;;35.40;30.80;;;;;;4972690;28;20117;-86
2022/06/07 08:48:22;;;;;;;5.90;1.30;;;35.20;31.00;;;;;;4972979;28;20501;-86
2022/06/07 08:51:14;;;;;;;6.50;1.33;;;35.50;31.40;;;;;;4977658;28;20034;-85
2022/06/07 08:53:45;;;;;;;2.95;0.90;;;36.10;30.60;;;;;;4991334;28;20421;-86
2022/06/07 08:56:18;;;;;;;3.78;1.30;;;36.20;30.00;;;;;;5001185;28;20018;-83
2022/06/07 08:58:49;;;;;;;3.05;0.95;;;36.20;28.90;;;;;;4996874;28;20022;-84
2022/06/07 09:01:30;;;;;;;2.05;1.10;;;36.00;28.30;;;;;;4996892;28;20033;-86
2022/06/07 09:04:21;;;;;;;3.92;1.10;;;35.40;28.70;;;;;;5012197;28;20030;-86
2022/06/07 09:06:50;;;;;;;1.70;1.15;;;35.30;30.40;;;;;;4994089;28;20193;-87
2022/06/07 09:09:20;;;;;;;5.40;1.30;;;35.10;30.00;;;;;;4993984;28;20041;-86
2022/06/07 09:12:15;;;;;;;1.10;1.00;;;35.30;29.50;;;;;;4995020;28;20030;-86
2022/06/07 09:14:44;;;;;;;1.55;0.98;;;35.00;28.70;;;;;;4993978;28;20034;-86
2022/06/07 09:17:14;;;;;;;4.18;1.20;;;34.70;29.50;;;;;;5010085;28;20026;-87
2022/06/07 09:19:43;;;;;;;4.68;1.27;;;34.50;30.50;;;;;;4994208;28;20513;-84
2022/06/07 09:22:23;;;;;;;5.38;1.00;;;34.30;30.50;;;;;;5009746;28;20045;-85
2022/06/07 09:25:16;;;;;;;3.10;1.10;;;34.40;30.90;;;;;;4991678;28;20037;-85
2022/06/07 09:27:45;;;;;;;4.32;1.08;;;34.30;31.50;;;;;;4993555;28;20444;-85
2022/06/07 09:30:19;;;;;;;1.83;1.00;;;34.40;30.20;;;;;;4992889;28;20033;-87
2022/06/07 09:32:49;;;;;;;2.70;1.13;;;34.60;30.20;;;;;;5008955;28;20030;-84
2022/06/07 09:35:23;;;;;;;3.63;0.90;;;34.60;30.00;;;;;;4992939;28;20054;-84
2022/06/07 09:37:58;;;;;;;2.40;1.20;;;34.70;29.10;;;;;;4989657;28;20557;-82
2022/06/07 09:40:34;;;;;;;5.55;1.30;;;34.50;28.80;;;;;;5002101;28;20029;-84
2022/06/07 09:43:05;;;;;;;6.90;1.33;;;34.50;31.00;;;;;;4990464;28;20033;-83
2022/06/07 09:45:38;;;;;;;1.50;1.08;;;34.10;30.40;;;;;;4987564;28;20417;-85
2022/06/07 09:48:22;;;;;;;2.67;1.40;;;34.30;30.50;;;;;;4991992;28;20026;-84
2022/06/07 09:50:58;;;;;;;1.65;1.00;;;34.40;31.20;;;;;;5007444;28;20030;-83
2022/06/07 09:53:25;;;;;;;1.70;1.20;;;34.50;31.60;;;;;;5008266;28;20649;-83
2022/06/07 09:55:52;;;;;;;4.57;1.38;;;34.80;31.70;;;;;;4991749;28;20030;-84
2022/06/07 09:58:32;;;;;;;1.05;0.80;;;34.90;30.70;;;;;;5008215;28;20490;-85
2022/06/07 10:01:03;;;;;;;3.85;0.98;;;34.80;30.70;;;;;;5007822;28;20050;-84
2022/06/07 10:03:47;;;;;;;1.50;1.33;;;35.20;30.00;;;;;;5007393;28;20040;-84
2022/06/07 10:06:26;;;;;;;1.85;1.02;;;34.70;29.60;;;;;;5008608;28;20030;-83
2022/06/07 10:09:27;;;;;;;1.42;1.10;;;34.00;30.30;;;;;;5009914;28;20069;-84
2022/06/07 10:12:12;;;;;;;4.20;1.60;;;33.50;30.50;;;;;;5009366;28;20018;-85
2022/06/07 10:15:12;;;;;;;4.50;1.10;;;33.30;30.80;;;;;;5009301;28;20414;-84
2022/06/07 10:17:54;;;;;;;8.52;1.20;;;33.10;30.00;;;;;;4984748;28;20038;-86
2022/06/07 10:20:42;;;;;;;3.63;1.40;;;32.50;31.60;;;;;;5009956;28;20058;-86
2022/06/07 10:24:03;;;;;;;1.80;1.02;;;32.50;33.00;;;;;;5011778;28;20030;-84
2022/06/07 10:27:00;;;;;;;2.22;1.05;;;32.20;32.60;;;;;;4977242;28;20129;-85
2022/06/07 10:30:02;;;;;;;1.83;1.17;;;32.10;32.80;;;;;;5002589;28;20037;-85
2022/06/07 10:32:42;;;;;;;2.30;0.90;;;32.10;32.60;;;;;;5006571;28;20513;-85
2022/06/07 10:35:39;;;;;;;1.42;0.93;;;32.00;32.50;;;;;;5018966;28;20542;-85
2022/06/07 10:38:12;;;;;;;3.78;1.30;;;32.10;32.80;;;;;;5001842;28;20041;-86
2022/06/07 10:41:12;;;;;;;2.55;0.85;;;32.10;31.60;;;;;;5017695;28;20042;-84
2022/06/07 10:44:11;;;;;;;2.05;1.27;;;31.80;31.30;;;;;;5000468;28;20037;-85
2022/06/07 10:46:40;;;;;;;5.13;1.08;;;31.40;32.10;;;;;;5003768;28;20502;-83
2022/06/07 10:49:24;;;;;;;1.77;1.08;;;31.10;34.20;;;;;;5004793;28;20034;-85
2022/06/07 10:55:01;;;;;;;4.03;1.13;;;30.80;34.80;;;;;;5005833;28;20718;-84
2022/06/07 10:57:33;;;;;;;1.40;0.90;;;31.00;34.60;;;;;;5006595;28;20049;-86
2022/06/07 11:00:11;;;;;;;1.48;0.93;;;31.10;34.40;;;;;;5015861;28;20048;-86
2022/06/07 11:02:52;;;;;;;3.47;1.00;;;31.30;33.70;;;;;;5017151;28;20030;-85
2022/06/07 11:11:15;;;;;;;3.53;0.98;;;31.10;35.10;;;;;;5004818;28;20100;-85
2022/06/07 11:14:23;;;;;;;2.22;1.13;;;31.30;34.30;;;;;;5007382;28;20109;-87
2022/06/07 11:17:16;;;;;;;3.17;1.10;;;31.40;35.30;;;;;;4996171;28;20054;-86
2022/06/07 11:19:43;;;;;;;1.77;1.05;;;31.30;34.90;;;;;;5017312;28;20346;-85
2022/06/07 11:22:20;;;;;;;4.28;1.15;;;31.30;33.90;;;;;;5008980;28;20577;-85
2022/06/07 11:24:59;;;;;;;5.13;1.58;;;31.00;34.50;;;;;;5008526;28;20035;-85
2022/06/07 11:27:27;;;;;;;1.73;1.38;;;30.80;34.80;;;;;;5015616;28;20038;-87
2022/06/07 11:30:21;;;;;;;1.77;0.90;;;30.80;35.20;;;;;;5019903;28;20204;-87
2022/06/07 11:32:59;;;;;;;1.25;0.90;;;30.60;35.30;;;;;;5001619;28;20106;-87
2022/06/07 11:35:54;;;;;;;1.70;0.98;;;30.30;35.60;;;;;;5003727;28;20054;-86
2022/06/07 11:38:24;;;;;;;2.08;1.40;;;30.10;36.40;;;;;;5002123;28;20037;-85
2022/06/07 11:41:36;;;;;;;2.80;1.13;;;30.00;37.10;;;;;;5005161;28;20034;-89
2022/06/07 11:43:55;;;;;;;5.50;1.15;;;30.00;36.60;;;;;;5012701;28;20508;-87
2022/06/07 11:46:35;;;;;;;5.53;1.30;;;30.50;37.90;;;;;;4994773;28;20662;-86
2022/06/07 11:49:20;;;;;;;2.53;1.27;;;30.50;36.30;;;;;;4995019;28;20045;-86
2022/06/07 11:51:57;;;;;;;1.95;1.13;;;30.30;36.50;;;;;;4995360;28;20026;-84
2022/06/07 11:54:54;;;;;;;1.20;0.98;;;30.20;37.20;;;;;;4995112;28;20029;-86
2022/06/07 11:57:31;;;;;;;1.98;1.20;;;30.10;37.40;;;;;;4992558;28;20037;-86
2022/06/07 12:00:00;;;;;;;4.43;1.13;;;30.00;38.30;;;;;;4992364;28;20571;-86
2022/06/07 12:02:32;;;;;;;3.83;0.90;;;30.00;37.10;;;;;;4994764;28;20026;-86
2022/06/07 12:05:17;;;;;;;3.70;0.77;;;29.90;37.80;;;;;;5011032;28;20403;-86
2022/06/07 12:07:42;;;;;;;3.63;1.00;;;29.80;37.40;;;;;;4994907;28;20025;-86
2022/06/07 12:10:17;;;;;;;4.60;1.00;;;29.90;37.40;;;;;;5011871;28;20038;-86
2022/06/07 12:12:47;;;;;;;7.03;1.35;;;29.90;36.80;;;;;;4994653;28;20054;-87
2022/06/07 12:15:24;;;;;;;3.55;0.90;;;29.80;37.40;;;;;;4994399;28;20029;-87
2022/06/07 12:18:03;;;;;;;1.10;0.70;;;29.90;37.80;;;;;;4994705;28;20026;-86
2022/06/07 12:20:35;;;;;;;4.88;0.77;;;30.00;37.50;;;;;;4994450;28;20112;-87
2022/06/07 12:23:24;;;;;;;3.75;0.80;;;30.00;37.50;;;;;;4994248;28;20033;-87
2022/06/07 12:25:59;;;;;;;8.57;1.15;;;30.10;37.50;;;;;;4996501;28;20073;-87
2022/06/07 12:28:29;;;;;;;4.95;1.00;;;30.00;37.40;;;;;;5007869;28;20220;-86
2022/06/07 12:30:54;;;;;;;4.75;1.30;;;29.80;38.00;;;;;;5004444;28;20038;-86
2022/06/07 12:33:33;;;;;;;2.92;1.10;;;29.60;37.60;;;;;;5015357;28;20069;-87
2022/06/07 12:36:09;;;;;;;1.73;0.90;;;29.50;38.50;;;;;;4993064;28;20061;-87
2022/06/07 12:38:35;;;;;;;2.58;1.00;;;29.50;38.70;;;;;;5010731;28;20620;-87
2022/06/07 12:41:04;;;;;;;1.50;1.10;;;29.70;39.10;;;;;;5010687;28;20030;-85
2022/06/07 12:43:32;;;;;;;1.40;1.08;;;29.80;38.60;;;;;;4993793;28;20116;-86
2022/06/07 12:46:24;;;;;;;4.32;1.00;;;30.00;39.30;;;;;;4994160;28;20033;-87
2022/06/07 12:48:51;;;;;;;2.95;1.00;;;29.90;38.70;;;;;;4994067;28;20030;-85
2022/06/07 12:51:24;;;;;;;1.73;1.20;;;30.00;38.60;;;;;;4994393;28;20029;-86
2022/06/07 12:53:57;;;;;;;5.40;1.55;;;29.90;38.60;;;;;;5011604;28;20050;-86
2022/06/07 12:56:25;;;;;;;3.53;1.17;;;29.90;39.10;;;;;;4994195;28;20026;-86
2022/06/07 12:58:52;;;;;;;1.95;1.10;;;30.00;38.90;;;;;;4993213;28;20025;-86
2022/06/07 13:01:32;;;;;;;7.20;4.65;;;29.90;37.70;;;;;;4993715;28;20030;-86
2022/06/07 13:04:21;;;;;;;21.23;5.03;;;29.90;38.60;;;;;;4993593;28;20104;-86
2022/06/07 13:07:01;;;;;;;5.63;4.32;;;29.90;38.40;;;;;;4993684;28;20026;-87
2022/06/07 13:09:27;;;;;;;9.45;1.80;;;29.90;38.90;;;;;;4994187;28;20029;-84
2022/06/07 13:11:53;;;;;;;1.88;1.08;;;30.10;39.30;;;;;;4993731;28;20112;-86
2022/06/07 13:14:20;;;;;;;1.38;0.80;;;29.90;39.10;;;;;;5009398;28;20057;-85
2022/06/07 13:16:47;;;;;;;1.45;0.90;;;29.90;39.10;;;;;;5011333;28;20101;-84
2022/06/07 13:19:17;;;;;;;10.60;1.50;;;29.90;39.30;;;;;;4993418;28;20478;-87
2022/06/07 13:22:03;;;;;;;3.35;0.90;;;29.80;39.00;;;;;;4993800;28;20060;-88
2022/06/07 13:24:42;;;;;;;1.77;1.05;;;29.80;39.40;;;;;;4993250;28;20057;-87
2022/06/07 13:27:36;;;;;;;1.33;0.88;;;29.80;40.00;;;;;;4993659;28;20032;-89
2022/06/07 13:30:03;;;;;;;1.15;0.95;;;29.90;40.10;;;;;;4993586;28;20037;-88
2022/06/07 13:32:29;;;;;;;1.20;0.70;;;29.80;40.10;;;;;;4993600;28;20486;-88